Aviation Digital Data Service (ADDS)

Output produced by METARs form (0247 UTC 20 March 2019)
found at http://www.aviationweather.gov/metar/data/
 
Forecast for: FAKM (KIMBERLEY/BJ VOR, ZA)
Text: TAF FAKM 200000Z 2003/2012 VRB03KT CAVOK TX32/2012Z TN18/2004Z
Forecast period: 0300 to 1200 UTC 20 March 2019
Forecast type: FROM: standard forecast or significant change
Winds: variable direction winds at 3 MPH (3 knots; 1.5 m/s)
Visibility: 6 or more miles 10+ km)
Ceiling: unknown
Clouds: missing
Weather: no significant weather forecast for this period